sensor_id;sensor_type;location;lat;lon;timestamp;P1;durP1;ratioP1;P2;durP2;ratioP2
52586;SDS011;38480;52.724;6.436;2024-03-22T00:01:26;49.13;;;33.03;;
52586;SDS011;38480;52.724;6.436;2024-03-22T00:03:52;52.37;;;33.13;;
52586;SDS011;38480;52.724;6.436;2024-03-22T00:06:19;51.17;;;32.67;;
52586;SDS011;38480;52.724;6.436;2024-03-22T00:08:44;52.03;;;32.67;;
52586;SDS011;38480;52.724;6.436;2024-03-22T00:11:10;53.53;;;33.53;;
52586;SDS011;38480;52.724;6.436;2024-03-22T00:13:36;56.57;;;34.43;;
52586;SDS011;38480;52.724;6.436;2024-03-22T00:16:03;61.30;;;35.73;;
52586;SDS011;38480;52.724;6.436;2024-03-22T00:18:29;49.30;;;32.67;;
52586;SDS011;38480;52.724;6.436;2024-03-22T00:20:55;56.07;;;34.97;;
52586;SDS011;38480;52.724;6.436;2024-03-22T00:23:21;57.27;;;36.60;;
52586;SDS011;38480;52.724;6.436;2024-03-22T00:25:47;52.90;;;35.73;;
52586;SDS011;38480;52.724;6.436;2024-03-22T00:28:13;53.37;;;36.47;;
52586;SDS011;38480;52.724;6.436;2024-03-22T00:30:39;55.23;;;36.63;;
52586;SDS011;38480;52.724;6.436;2024-03-22T00:33:05;56.63;;;35.77;;
52586;SDS011;38480;52.724;6.436;2024-03-22T00:35:31;55.03;;;35.73;;
52586;SDS011;38480;52.724;6.436;2024-03-22T00:37:57;55.63;;;36.23;;
52586;SDS011;38480;52.724;6.436;2024-03-22T00:40:22;53.53;;;35.07;;
52586;SDS011;38480;52.724;6.436;2024-03-22T00:42:49;56.10;;;37.07;;
52586;SDS011;38480;52.724;6.436;2024-03-22T00:45:15;58.80;;;37.40;;
52586;SDS011;38480;52.724;6.436;2024-03-22T00:47:41;56.27;;;36.53;;
52586;SDS011;38480;52.724;6.436;2024-03-22T00:50:07;58.57;;;37.53;;
52586;SDS011;38480;52.724;6.436;2024-03-22T00:52:33;58.67;;;39.83;;
52586;SDS011;38480;52.724;6.436;2024-03-22T00:54:59;57.07;;;37.53;;
52586;SDS011;38480;52.724;6.436;2024-03-22T00:57:25;59.23;;;36.53;;
52586;SDS011;38480;52.724;6.436;2024-03-22T00:59:51;62.40;;;39.83;;
52586;SDS011;38480;52.724;6.436;2024-03-22T01:02:17;59.63;;;37.67;;
52586;SDS011;38480;52.724;6.436;2024-03-22T01:04:43;60.03;;;38.23;;
52586;SDS011;38480;52.724;6.436;2024-03-22T01:07:09;63.27;;;39.07;;
52586;SDS011;38480;52.724;6.436;2024-03-22T01:09:35;61.60;;;39.13;;
52586;SDS011;38480;52.724;6.436;2024-03-22T01:12:01;62.90;;;39.70;;
52586;SDS011;38480;52.724;6.436;2024-03-22T01:14:27;65.10;;;39.37;;
52586;SDS011;38480;52.724;6.436;2024-03-22T01:16:53;65.43;;;41.20;;
52586;SDS011;38480;52.724;6.436;2024-03-22T01:19:20;60.57;;;37.00;;
52586;SDS011;38480;52.724;6.436;2024-03-22T01:21:47;64.77;;;40.97;;
52586;SDS011;38480;52.724;6.436;2024-03-22T01:24:13;64.03;;;40.50;;
52586;SDS011;38480;52.724;6.436;2024-03-22T01:26:39;62.47;;;39.00;;
52586;SDS011;38480;52.724;6.436;2024-03-22T01:29:06;67.23;;;41.17;;
52586;SDS011;38480;52.724;6.436;2024-03-22T01:31:32;68.60;;;41.83;;
52586;SDS011;38480;52.724;6.436;2024-03-22T01:33:58;69.43;;;40.07;;
52586;SDS011;38480;52.724;6.436;2024-03-22T01:36:24;66.73;;;41.03;;
52586;SDS011;38480;52.724;6.436;2024-03-22T01:38:50;67.90;;;42.83;;
52586;SDS011;38480;52.724;6.436;2024-03-22T01:41:16;68.87;;;41.27;;
52586;SDS011;38480;52.724;6.436;2024-03-22T01:43:43;70.57;;;43.03;;
52586;SDS011;38480;52.724;6.436;2024-03-22T01:46:09;69.07;;;40.63;;
52586;SDS011;38480;52.724;6.436;2024-03-22T01:48:35;68.57;;;42.30;;
52586;SDS011;38480;52.724;6.436;2024-03-22T01:51:02;66.33;;;40.50;;
52586;SDS011;38480;52.724;6.436;2024-03-22T01:53:28;66.27;;;40.57;;
52586;SDS011;38480;52.724;6.436;2024-03-22T01:55:54;68.90;;;40.23;;
52586;SDS011;38480;52.724;6.436;2024-03-22T01:58:20;66.43;;;41.17;;
52586;SDS011;38480;52.724;6.436;2024-03-22T02:00:47;71.87;;;40.37;;
52586;SDS011;38480;52.724;6.436;2024-03-22T02:03:13;69.07;;;41.77;;
52586;SDS011;38480;52.724;6.436;2024-03-22T02:05:39;69.60;;;41.23;;
52586;SDS011;38480;52.724;6.436;2024-03-22T02:08:05;72.33;;;42.50;;
52586;SDS011;38480;52.724;6.436;2024-03-22T02:10:31;72.17;;;42.13;;
52586;SDS011;38480;52.724;6.436;2024-03-22T02:12:57;69.93;;;42.87;;
52586;SDS011;38480;52.724;6.436;2024-03-22T02:15:23;66.83;;;40.20;;
52586;SDS011;38480;52.724;6.436;2024-03-22T02:17:49;72.30;;;43.43;;
52586;SDS011;38480;52.724;6.436;2024-03-22T02:20:15;68.80;;;43.17;;
52586;SDS011;38480;52.724;6.436;2024-03-22T02:22:41;73.33;;;45.30;;
52586;SDS011;38480;52.724;6.436;2024-03-22T02:25:07;77.33;;;44.57;;
52586;SDS011;38480;52.724;6.436;2024-03-22T02:27:34;69.57;;;42.50;;
52586;SDS011;38480;52.724;6.436;2024-03-22T02:30:00;66.40;;;41.07;;
52586;SDS011;38480;52.724;6.436;2024-03-22T02:32:27;70.17;;;40.60;;
52586;SDS011;38480;52.724;6.436;2024-03-22T02:34:53;68.97;;;39.87;;
52586;SDS011;38480;52.724;6.436;2024-03-22T02:37:19;70.67;;;44.43;;
52586;SDS011;38480;52.724;6.436;2024-03-22T02:39:45;69.00;;;42.43;;
52586;SDS011;38480;52.724;6.436;2024-03-22T02:42:11;69.83;;;43.77;;
52586;SDS011;38480;52.724;6.436;2024-03-22T02:44:37;66.30;;;40.77;;
52586;SDS011;38480;52.724;6.436;2024-03-22T02:47:08;71.70;;;41.43;;
52586;SDS011;38480;52.724;6.436;2024-03-22T02:49:34;67.73;;;40.93;;
52586;SDS011;38480;52.724;6.436;2024-03-22T02:52:00;72.27;;;44.80;;
52586;SDS011;38480;52.724;6.436;2024-03-22T02:54:26;75.10;;;42.93;;
52586;SDS011;38480;52.724;6.436;2024-03-22T02:56:52;69.40;;;43.77;;
52586;SDS011;38480;52.724;6.436;2024-03-22T02:59:18;73.57;;;43.83;;
52586;SDS011;38480;52.724;6.436;2024-03-22T03:01:44;66.77;;;40.10;;
52586;SDS011;38480;52.724;6.436;2024-03-22T03:04:10;71.50;;;44.43;;
52586;SDS011;38480;52.724;6.436;2024-03-22T03:06:36;66.17;;;42.33;;
52586;SDS011;38480;52.724;6.436;2024-03-22T03:09:02;68.13;;;41.83;;
52586;SDS011;38480;52.724;6.436;2024-03-22T03:11:32;70.90;;;41.83;;
52586;SDS011;38480;52.724;6.436;2024-03-22T03:13:58;68.40;;;41.93;;
52586;SDS011;38480;52.724;6.436;2024-03-22T03:16:24;70.10;;;42.47;;
52586;SDS011;38480;52.724;6.436;2024-03-22T03:18:50;69.70;;;40.07;;
52586;SDS011;38480;52.724;6.436;2024-03-22T03:21:16;73.53;;;41.53;;
52586;SDS011;38480;52.724;6.436;2024-03-22T03:23:42;69.23;;;43.13;;
52586;SDS011;38480;52.724;6.436;2024-03-22T03:26:08;70.67;;;42.40;;
52586;SDS011;38480;52.724;6.436;2024-03-22T03:28:34;66.07;;;39.40;;
52586;SDS011;38480;52.724;6.436;2024-03-22T03:31:00;65.73;;;39.60;;
52586;SDS011;38480;52.724;6.436;2024-03-22T03:33:26;67.37;;;40.43;;
52586;SDS011;38480;52.724;6.436;2024-03-22T03:35:52;68.33;;;40.67;;
52586;SDS011;38480;52.724;6.436;2024-03-22T03:38:18;68.10;;;41.43;;
52586;SDS011;38480;52.724;6.436;2024-03-22T03:40:44;73.13;;;41.57;;
52586;SDS011;38480;52.724;6.436;2024-03-22T03:43:10;72.40;;;40.53;;
52586;SDS011;38480;52.724;6.436;2024-03-22T03:45:36;66.83;;;41.40;;
52586;SDS011;38480;52.724;6.436;2024-03-22T03:48:02;67.13;;;39.97;;
52586;SDS011;38480;52.724;6.436;2024-03-22T03:50:29;67.97;;;39.33;;
52586;SDS011;38480;52.724;6.436;2024-03-22T03:52:55;64.97;;;38.47;;
52586;SDS011;38480;52.724;6.436;2024-03-22T03:55:21;70.57;;;42.63;;
52586;SDS011;38480;52.724;6.436;2024-03-22T03:57:49;70.83;;;40.83;;
52586;SDS011;38480;52.724;6.436;2024-03-22T04:00:15;68.43;;;39.23;;
52586;SDS011;38480;52.724;6.436;2024-03-22T04:02:41;72.87;;;42.47;;
52586;SDS011;38480;52.724;6.436;2024-03-22T04:05:07;68.97;;;40.20;;
52586;SDS011;38480;52.724;6.436;2024-03-22T04:07:33;71.60;;;41.70;;
52586;SDS011;38480;52.724;6.436;2024-03-22T04:09:59;72.90;;;42.17;;
52586;SDS011;38480;52.724;6.436;2024-03-22T04:12:26;72.67;;;41.50;;
52586;SDS011;38480;52.724;6.436;2024-03-22T04:14:52;71.33;;;43.53;;
52586;SDS011;38480;52.724;6.436;2024-03-22T04:17:18;73.33;;;43.80;;
52586;SDS011;38480;52.724;6.436;2024-03-22T04:19:44;75.77;;;42.00;;
52586;SDS011;38480;52.724;6.436;2024-03-22T04:22:10;77.00;;;43.67;;
52586;SDS011;38480;52.724;6.436;2024-03-22T04:24:36;77.13;;;43.17;;
52586;SDS011;38480;52.724;6.436;2024-03-22T04:27:02;74.93;;;45.30;;
52586;SDS011;38480;52.724;6.436;2024-03-22T04:29:28;71.30;;;43.43;;
52586;SDS011;38480;52.724;6.436;2024-03-22T04:31:54;72.60;;;42.13;;
52586;SDS011;38480;52.724;6.436;2024-03-22T04:34:20;82.53;;;47.93;;
52586;SDS011;38480;52.724;6.436;2024-03-22T04:36:46;79.53;;;42.67;;
52586;SDS011;38480;52.724;6.436;2024-03-22T04:39:12;75.97;;;42.37;;
52586;SDS011;38480;52.724;6.436;2024-03-22T04:41:39;81.37;;;45.47;;
52586;SDS011;38480;52.724;6.436;2024-03-22T04:44:05;75.37;;;46.93;;
52586;SDS011;38480;52.724;6.436;2024-03-22T04:46:31;77.47;;;47.40;;
52586;SDS011;38480;52.724;6.436;2024-03-22T04:48:57;75.00;;;44.40;;
52586;SDS011;38480;52.724;6.436;2024-03-22T04:51:23;75.80;;;44.63;;
52586;SDS011;38480;52.724;6.436;2024-03-22T04:53:49;74.77;;;44.70;;
52586;SDS011;38480;52.724;6.436;2024-03-22T04:56:15;72.67;;;42.30;;
52586;SDS011;38480;52.724;6.436;2024-03-22T04:58:41;70.53;;;43.60;;
52586;SDS011;38480;52.724;6.436;2024-03-22T05:01:07;79.93;;;45.33;;
52586;SDS011;38480;52.724;6.436;2024-03-22T05:03:33;74.70;;;42.43;;
52586;SDS011;38480;52.724;6.436;2024-03-22T05:05:59;78.93;;;45.43;;
52586;SDS011;38480;52.724;6.436;2024-03-22T05:08:28;86.10;;;45.67;;
52586;SDS011;38480;52.724;6.436;2024-03-22T05:10:54;82.97;;;45.33;;
52586;SDS011;38480;52.724;6.436;2024-03-22T05:13:20;76.37;;;41.50;;
52586;SDS011;38480;52.724;6.436;2024-03-22T05:15:46;79.43;;;44.60;;
52586;SDS011;38480;52.724;6.436;2024-03-22T05:18:12;74.00;;;42.57;;
52586;SDS011;38480;52.724;6.436;2024-03-22T05:20:38;76.37;;;41.47;;
52586;SDS011;38480;52.724;6.436;2024-03-22T05:23:04;70.40;;;41.73;;
52586;SDS011;38480;52.724;6.436;2024-03-22T05:25:30;73.07;;;43.90;;
52586;SDS011;38480;52.724;6.436;2024-03-22T05:27:56;77.10;;;44.57;;
52586;SDS011;38480;52.724;6.436;2024-03-22T05:30:22;79.13;;;43.03;;
52586;SDS011;38480;52.724;6.436;2024-03-22T05:32:48;82.23;;;42.17;;
52586;SDS011;38480;52.724;6.436;2024-03-22T05:35:15;78.50;;;45.47;;
52586;SDS011;38480;52.724;6.436;2024-03-22T05:37:41;73.87;;;42.20;;
52586;SDS011;38480;52.724;6.436;2024-03-22T05:40:07;70.27;;;41.70;;
52586;SDS011;38480;52.724;6.436;2024-03-22T05:42:34;77.37;;;47.37;;
52586;SDS011;38480;52.724;6.436;2024-03-22T05:45:00;75.50;;;41.23;;
52586;SDS011;38480;52.724;6.436;2024-03-22T05:47:26;89.23;;;46.67;;
52586;SDS011;38480;52.724;6.436;2024-03-22T05:49:52;96.27;;;51.20;;
52586;SDS011;38480;52.724;6.436;2024-03-22T05:52:18;118.83;;;55.03;;
52586;SDS011;38480;52.724;6.436;2024-03-22T05:54:44;106.50;;;52.57;;
52586;SDS011;38480;52.724;6.436;2024-03-22T05:57:11;103.77;;;51.30;;
52586;SDS011;38480;52.724;6.436;2024-03-22T05:59:37;101.07;;;50.27;;
52586;SDS011;38480;52.724;6.436;2024-03-22T06:02:03;110.80;;;50.97;;
52586;SDS011;38480;52.724;6.436;2024-03-22T06:04:29;137.00;;;52.53;;
52586;SDS011;38480;52.724;6.436;2024-03-22T06:06:55;117.63;;;49.17;;
52586;SDS011;38480;52.724;6.436;2024-03-22T06:09:21;118.00;;;50.73;;
52586;SDS011;38480;52.724;6.436;2024-03-22T06:12:01;105.17;;;49.17;;
52586;SDS011;38480;52.724;6.436;2024-03-22T06:14:28;123.53;;;51.03;;
52586;SDS011;38480;52.724;6.436;2024-03-22T06:16:54;121.90;;;52.83;;
52586;SDS011;38480;52.724;6.436;2024-03-22T06:19:20;116.93;;;52.27;;
52586;SDS011;38480;52.724;6.436;2024-03-22T06:21:46;127.47;;;55.23;;
52586;SDS011;38480;52.724;6.436;2024-03-22T06:24:12;122.73;;;55.30;;
52586;SDS011;38480;52.724;6.436;2024-03-22T06:26:38;133.53;;;53.50;;
52586;SDS011;38480;52.724;6.436;2024-03-22T06:29:04;142.90;;;55.80;;
52586;SDS011;38480;52.724;6.436;2024-03-22T06:31:31;128.07;;;52.60;;
52586;SDS011;38480;52.724;6.436;2024-03-22T06:33:57;135.77;;;54.70;;
52586;SDS011;38480;52.724;6.436;2024-03-22T06:36:27;130.07;;;52.70;;
52586;SDS011;38480;52.724;6.436;2024-03-22T06:38:53;114.13;;;50.10;;
52586;SDS011;38480;52.724;6.436;2024-03-22T06:41:19;101.63;;;48.60;;
52586;SDS011;38480;52.724;6.436;2024-03-22T06:43:45;105.47;;;50.43;;
52586;SDS011;38480;52.724;6.436;2024-03-22T06:46:12;105.63;;;49.17;;
52586;SDS011;38480;52.724;6.436;2024-03-22T06:48:38;96.80;;;44.77;;
52586;SDS011;38480;52.724;6.436;2024-03-22T06:51:04;88.97;;;46.03;;
52586;SDS011;38480;52.724;6.436;2024-03-22T06:53:30;113.03;;;49.13;;
52586;SDS011;38480;52.724;6.436;2024-03-22T06:55:56;90.80;;;41.33;;
52586;SDS011;38480;52.724;6.436;2024-03-22T06:58:22;94.97;;;42.97;;
52586;SDS011;38480;52.724;6.436;2024-03-22T07:00:48;86.30;;;44.90;;
52586;SDS011;38480;52.724;6.436;2024-03-22T07:03:14;93.30;;;42.70;;
52586;SDS011;38480;52.724;6.436;2024-03-22T07:05:41;81.63;;;39.80;;
52586;SDS011;38480;52.724;6.436;2024-03-22T07:08:07;85.10;;;38.17;;
52586;SDS011;38480;52.724;6.436;2024-03-22T07:10:33;74.53;;;37.83;;
52586;SDS011;38480;52.724;6.436;2024-03-22T07:12:59;77.10;;;38.60;;
52586;SDS011;38480;52.724;6.436;2024-03-22T07:15:26;63.50;;;35.60;;
52586;SDS011;38480;52.724;6.436;2024-03-22T07:17:52;76.80;;;37.63;;
52586;SDS011;38480;52.724;6.436;2024-03-22T07:20:18;76.47;;;37.60;;
52586;SDS011;38480;52.724;6.436;2024-03-22T07:22:44;71.87;;;37.07;;
52586;SDS011;38480;52.724;6.436;2024-03-22T07:25:11;67.90;;;33.53;;
52586;SDS011;38480;52.724;6.436;2024-03-22T07:27:37;81.00;;;37.57;;
52586;SDS011;38480;52.724;6.436;2024-03-22T07:30:03;64.03;;;32.70;;
52586;SDS011;38480;52.724;6.436;2024-03-22T07:32:30;64.00;;;31.10;;
52586;SDS011;38480;52.724;6.436;2024-03-22T07:34:56;60.23;;;30.37;;
52586;SDS011;38480;52.724;6.436;2024-03-22T07:37:22;51.97;;;27.83;;
52586;SDS011;38480;52.724;6.436;2024-03-22T07:39:48;63.80;;;27.00;;
52586;SDS011;38480;52.724;6.436;2024-03-22T07:42:14;51.33;;;27.23;;
52586;SDS011;38480;52.724;6.436;2024-03-22T07:44:40;49.87;;;25.80;;
52586;SDS011;38480;52.724;6.436;2024-03-22T07:47:06;45.37;;;24.50;;
52586;SDS011;38480;52.724;6.436;2024-03-22T07:49:32;48.73;;;26.20;;
52586;SDS011;38480;52.724;6.436;2024-03-22T07:51:59;43.50;;;23.97;;
52586;SDS011;38480;52.724;6.436;2024-03-22T07:54:25;45.97;;;23.27;;
52586;SDS011;38480;52.724;6.436;2024-03-22T07:56:52;51.10;;;24.83;;
52586;SDS011;38480;52.724;6.436;2024-03-22T07:59:18;52.93;;;23.53;;
52586;SDS011;38480;52.724;6.436;2024-03-22T08:01:44;43.63;;;20.40;;
52586;SDS011;38480;52.724;6.436;2024-03-22T08:04:11;39.13;;;22.53;;
52586;SDS011;38480;52.724;6.436;2024-03-22T08:06:37;42.63;;;20.83;;
52586;SDS011;38480;52.724;6.436;2024-03-22T08:09:03;51.87;;;20.73;;
52586;SDS011;38480;52.724;6.436;2024-03-22T08:11:30;41.20;;;20.33;;
52586;SDS011;38480;52.724;6.436;2024-03-22T08:13:56;35.90;;;18.10;;
52586;SDS011;38480;52.724;6.436;2024-03-22T08:16:27;37.03;;;19.50;;
52586;SDS011;38480;52.724;6.436;2024-03-22T08:18:53;31.77;;;17.33;;
52586;SDS011;38480;52.724;6.436;2024-03-22T08:21:19;38.63;;;18.77;;
52586;SDS011;38480;52.724;6.436;2024-03-22T08:23:45;39.60;;;17.67;;
52586;SDS011;38480;52.724;6.436;2024-03-22T08:26:11;37.87;;;17.83;;
52586;SDS011;38480;52.724;6.436;2024-03-22T08:28:37;36.80;;;17.33;;
52586;SDS011;38480;52.724;6.436;2024-03-22T08:31:04;39.17;;;15.97;;
52586;SDS011;38480;52.724;6.436;2024-03-22T08:33:30;36.00;;;19.03;;
52586;SDS011;38480;52.724;6.436;2024-03-22T08:35:56;36.57;;;18.10;;
52586;SDS011;38480;52.724;6.436;2024-03-22T08:38:23;47.00;;;19.87;;
52586;SDS011;38480;52.724;6.436;2024-03-22T08:40:49;38.60;;;19.27;;
52586;SDS011;38480;52.724;6.436;2024-03-22T08:43:15;35.63;;;19.27;;
52586;SDS011;38480;52.724;6.436;2024-03-22T08:45:41;40.40;;;21.07;;
52586;SDS011;38480;52.724;6.436;2024-03-22T08:48:08;50.57;;;22.97;;
52586;SDS011;38480;52.724;6.436;2024-03-22T08:50:34;44.40;;;23.97;;
52586;SDS011;38480;52.724;6.436;2024-03-22T08:53:00;53.17;;;24.63;;
52586;SDS011;38480;52.724;6.436;2024-03-22T08:55:29;53.07;;;24.17;;
52586;SDS011;38480;52.724;6.436;2024-03-22T08:57:56;55.83;;;26.00;;
52586;SDS011;38480;52.724;6.436;2024-03-22T09:00:22;57.03;;;25.23;;
52586;SDS011;38480;52.724;6.436;2024-03-22T09:02:48;56.20;;;26.53;;
52586;SDS011;38480;52.724;6.436;2024-03-22T09:05:14;61.70;;;28.50;;
52586;SDS011;38480;52.724;6.436;2024-03-22T09:07:40;56.97;;;27.23;;
52586;SDS011;38480;52.724;6.436;2024-03-22T09:10:06;70.10;;;28.57;;
52586;SDS011;38480;52.724;6.436;2024-03-22T09:12:32;60.30;;;27.20;;
52586;SDS011;38480;52.724;6.436;2024-03-22T09:14:58;59.17;;;26.77;;
52586;SDS011;38480;52.724;6.436;2024-03-22T09:17:25;73.40;;;27.37;;
52586;SDS011;38480;52.724;6.436;2024-03-22T09:19:51;52.10;;;25.57;;
52586;SDS011;38480;52.724;6.436;2024-03-22T09:22:17;64.77;;;26.80;;
52586;SDS011;38480;52.724;6.436;2024-03-22T09:24:43;69.10;;;28.83;;
52586;SDS011;38480;52.724;6.436;2024-03-22T09:27:09;61.10;;;26.20;;
52586;SDS011;38480;52.724;6.436;2024-03-22T09:29:36;59.73;;;25.87;;
52586;SDS011;38480;52.724;6.436;2024-03-22T09:32:02;73.73;;;29.53;;
52586;SDS011;38480;52.724;6.436;2024-03-22T09:34:28;75.33;;;30.13;;
52586;SDS011;38480;52.724;6.436;2024-03-22T09:36:55;54.97;;;26.20;;
52586;SDS011;38480;52.724;6.436;2024-03-22T09:39:21;51.43;;;26.70;;
52586;SDS011;38480;52.724;6.436;2024-03-22T09:41:47;64.83;;;27.47;;
52586;SDS011;38480;52.724;6.436;2024-03-22T09:44:14;66.83;;;27.33;;
52586;SDS011;38480;52.724;6.436;2024-03-22T09:46:42;73.47;;;29.93;;
52586;SDS011;38480;52.724;6.436;2024-03-22T09:49:11;71.53;;;29.00;;
52586;SDS011;38480;52.724;6.436;2024-03-22T09:51:39;46.23;;;25.47;;
52586;SDS011;38480;52.724;6.436;2024-03-22T09:54:05;80.17;;;30.63;;
52586;SDS011;38480;52.724;6.436;2024-03-22T09:56:31;69.23;;;31.67;;
52586;SDS011;38480;52.724;6.436;2024-03-22T09:58:57;71.53;;;31.30;;
52586;SDS011;38480;52.724;6.436;2024-03-22T10:01:24;70.60;;;31.50;;
52586;SDS011;38480;52.724;6.436;2024-03-22T10:03:53;76.33;;;32.47;;
52586;SDS011;38480;52.724;6.436;2024-03-22T10:06:20;55.23;;;28.37;;
52586;SDS011;38480;52.724;6.436;2024-03-22T10:08:46;71.07;;;30.50;;
52586;SDS011;38480;52.724;6.436;2024-03-22T10:11:12;64.83;;;30.60;;
52586;SDS011;38480;52.724;6.436;2024-03-22T10:13:38;73.67;;;32.80;;
52586;SDS011;38480;52.724;6.436;2024-03-22T10:16:04;68.77;;;30.53;;
52586;SDS011;38480;52.724;6.436;2024-03-22T10:18:32;83.60;;;33.77;;
52586;SDS011;38480;52.724;6.436;2024-03-22T10:21:01;64.13;;;29.20;;
52586;SDS011;38480;52.724;6.436;2024-03-22T10:23:28;55.37;;;27.33;;
52586;SDS011;38480;52.724;6.436;2024-03-22T10:25:56;51.37;;;25.13;;
52586;SDS011;38480;52.724;6.436;2024-03-22T10:28:23;57.13;;;27.93;;
52586;SDS011;38480;52.724;6.436;2024-03-22T10:30:50;69.73;;;30.03;;
52586;SDS011;38480;52.724;6.436;2024-03-22T10:33:18;54.30;;;26.07;;
52586;SDS011;38480;52.724;6.436;2024-03-22T10:35:44;53.00;;;23.63;;
52586;SDS011;38480;52.724;6.436;2024-03-22T10:38:12;37.40;;;22.37;;
52586;SDS011;38480;52.724;6.436;2024-03-22T10:40:38;52.10;;;24.63;;
52586;SDS011;38480;52.724;6.436;2024-03-22T10:43:05;38.00;;;21.43;;
52586;SDS011;38480;52.724;6.436;2024-03-22T10:45:31;48.90;;;23.60;;
52586;SDS011;38480;52.724;6.436;2024-03-22T10:47:58;45.50;;;22.77;;
52586;SDS011;38480;52.724;6.436;2024-03-22T10:50:28;41.07;;;20.50;;
52586;SDS011;38480;52.724;6.436;2024-03-22T10:52:58;34.07;;;17.90;;
52586;SDS011;38480;52.724;6.436;2024-03-22T10:55:30;41.90;;;21.47;;
52586;SDS011;38480;52.724;6.436;2024-03-22T10:57:58;41.43;;;20.67;;
52586;SDS011;38480;52.724;6.436;2024-03-22T11:00:27;40.67;;;19.90;;
52586;SDS011;38480;52.724;6.436;2024-03-22T11:02:54;52.73;;;22.03;;
52586;SDS011;38480;52.724;6.436;2024-03-22T11:05:21;23.13;;;15.50;;
52586;SDS011;38480;52.724;6.436;2024-03-22T11:07:47;31.73;;;17.37;;
52586;SDS011;38480;52.724;6.436;2024-03-22T11:10:13;38.70;;;19.03;;
52586;SDS011;38480;52.724;6.436;2024-03-22T11:12:42;32.87;;;18.93;;
52586;SDS011;38480;52.724;6.436;2024-03-22T11:15:09;28.77;;;15.50;;
52586;SDS011;38480;52.724;6.436;2024-03-22T11:17:37;34.13;;;17.80;;
52586;SDS011;38480;52.724;6.436;2024-03-22T11:20:03;38.33;;;18.17;;
52586;SDS011;38480;52.724;6.436;2024-03-22T11:22:31;37.67;;;18.20;;
52586;SDS011;38480;52.724;6.436;2024-03-22T11:24:57;28.67;;;15.80;;
52586;SDS011;38480;52.724;6.436;2024-03-22T11:27:23;33.57;;;17.33;;
52586;SDS011;38480;52.724;6.436;2024-03-22T11:29:51;31.60;;;17.83;;
52586;SDS011;38480;52.724;6.436;2024-03-22T11:32:19;34.80;;;16.93;;
52586;SDS011;38480;52.724;6.436;2024-03-22T11:34:45;35.50;;;19.40;;
52586;SDS011;38480;52.724;6.436;2024-03-22T11:37:12;33.63;;;17.23;;
52586;SDS011;38480;52.724;6.436;2024-03-22T11:39:39;24.77;;;15.77;;
52586;SDS011;38480;52.724;6.436;2024-03-22T11:42:05;30.83;;;16.20;;
52586;SDS011;38480;52.724;6.436;2024-03-22T11:44:32;29.83;;;15.70;;
52586;SDS011;38480;52.724;6.436;2024-03-22T11:46:59;22.13;;;13.67;;
52586;SDS011;38480;52.724;6.436;2024-03-22T11:49:25;28.07;;;14.90;;
52586;SDS011;38480;52.724;6.436;2024-03-22T11:51:52;26.17;;;14.87;;
52586;SDS011;38480;52.724;6.436;2024-03-22T11:54:21;30.30;;;15.57;;
52586;SDS011;38480;52.724;6.436;2024-03-22T11:56:48;21.90;;;12.60;;
52586;SDS011;38480;52.724;6.436;2024-03-22T11:59:14;21.73;;;12.33;;
52586;SDS011;38480;52.724;6.436;2024-03-22T12:01:41;22.63;;;12.00;;
52586;SDS011;38480;52.724;6.436;2024-03-22T12:04:07;20.77;;;10.53;;
52586;SDS011;38480;52.724;6.436;2024-03-22T12:06:36;25.37;;;13.20;;
52586;SDS011;38480;52.724;6.436;2024-03-22T12:09:02;17.07;;;10.17;;
52586;SDS011;38480;52.724;6.436;2024-03-22T12:11:32;19.37;;;11.00;;
52586;SDS011;38480;52.724;6.436;2024-03-22T12:13:58;20.33;;;11.53;;
52586;SDS011;38480;52.724;6.436;2024-03-22T12:16:24;17.40;;;10.33;;
52586;SDS011;38480;52.724;6.436;2024-03-22T12:18:50;20.03;;;11.27;;
52586;SDS011;38480;52.724;6.436;2024-03-22T12:21:16;21.40;;;10.53;;
52586;SDS011;38480;52.724;6.436;2024-03-22T12:23:42;16.20;;;9.60;;
52586;SDS011;38480;52.724;6.436;2024-03-22T12:26:08;18.00;;;9.83;;
52586;SDS011;38480;52.724;6.436;2024-03-22T12:28:34;17.70;;;9.43;;
52586;SDS011;38480;52.724;6.436;2024-03-22T12:31:00;23.13;;;10.97;;
52586;SDS011;38480;52.724;6.436;2024-03-22T12:33:26;26.67;;;13.03;;
52586;SDS011;38480;52.724;6.436;2024-03-22T12:35:52;19.43;;;10.60;;
52586;SDS011;38480;52.724;6.436;2024-03-22T12:38:18;20.53;;;9.93;;
52586;SDS011;38480;52.724;6.436;2024-03-22T12:40:44;17.23;;;9.43;;
52586;SDS011;38480;52.724;6.436;2024-03-22T12:43:10;15.57;;;8.73;;
52586;SDS011;38480;52.724;6.436;2024-03-22T12:45:37;14.93;;;8.20;;
52586;SDS011;38480;52.724;6.436;2024-03-22T12:48:03;20.10;;;8.97;;
52586;SDS011;38480;52.724;6.436;2024-03-22T12:50:29;12.87;;;6.03;;
52586;SDS011;38480;52.724;6.436;2024-03-22T12:52:55;16.83;;;6.57;;
52586;SDS011;38480;52.724;6.436;2024-03-22T12:55:21;14.67;;;6.20;;
52586;SDS011;38480;52.724;6.436;2024-03-22T12:57:47;9.47;;;4.50;;
52586;SDS011;38480;52.724;6.436;2024-03-22T13:00:13;13.37;;;5.13;;
52586;SDS011;38480;52.724;6.436;2024-03-22T13:02:43;17.77;;;5.10;;
52586;SDS011;38480;52.724;6.436;2024-03-22T13:05:09;13.60;;;4.73;;
52586;SDS011;38480;52.724;6.436;2024-03-22T13:07:35;13.23;;;4.53;;
52586;SDS011;38480;52.724;6.436;2024-03-22T13:10:02;15.63;;;4.87;;
52586;SDS011;38480;52.724;6.436;2024-03-22T13:12:28;15.83;;;4.93;;
52586;SDS011;38480;52.724;6.436;2024-03-22T13:14:59;20.43;;;5.73;;
52586;SDS011;38480;52.724;6.436;2024-03-22T13:17:25;17.13;;;4.80;;
52586;SDS011;38480;52.724;6.436;2024-03-22T13:19:51;20.63;;;5.40;;
52586;SDS011;38480;52.724;6.436;2024-03-22T13:22:17;20.77;;;6.00;;
52586;SDS011;38480;52.724;6.436;2024-03-22T13:24:46;18.67;;;5.70;;
52586;SDS011;38480;52.724;6.436;2024-03-22T13:27:12;15.47;;;5.00;;
52586;SDS011;38480;52.724;6.436;2024-03-22T13:29:39;15.60;;;5.90;;
52586;SDS011;38480;52.724;6.436;2024-03-22T13:32:05;22.23;;;5.27;;
52586;SDS011;38480;52.724;6.436;2024-03-22T13:34:35;16.80;;;6.50;;
52586;SDS011;38480;52.724;6.436;2024-03-22T13:37:01;17.60;;;5.77;;
52586;SDS011;38480;52.724;6.436;2024-03-22T13:39:27;15.33;;;5.63;;
52586;SDS011;38480;52.724;6.436;2024-03-22T13:41:55;16.03;;;6.40;;
52586;SDS011;38480;52.724;6.436;2024-03-22T13:44:21;22.53;;;7.57;;
52586;SDS011;38480;52.724;6.436;2024-03-22T13:46:48;27.67;;;7.50;;
52586;SDS011;38480;52.724;6.436;2024-03-22T13:49:17;24.43;;;9.57;;
52586;SDS011;38480;52.724;6.436;2024-03-22T13:51:43;20.07;;;8.50;;
52586;SDS011;38480;52.724;6.436;2024-03-22T13:54:10;27.97;;;9.37;;
52586;SDS011;38480;52.724;6.436;2024-03-22T13:56:37;26.57;;;9.70;;
52586;SDS011;38480;52.724;6.436;2024-03-22T13:59:03;23.87;;;10.07;;
52586;SDS011;38480;52.724;6.436;2024-03-22T14:01:36;26.05;;;10.00;;
52586;SDS011;38480;52.724;6.436;2024-03-22T14:04:05;21.37;;;10.00;;
52586;SDS011;38480;52.724;6.436;2024-03-22T14:06:31;29.93;;;11.80;;
52586;SDS011;38480;52.724;6.436;2024-03-22T14:08:57;25.47;;;11.53;;
52586;SDS011;38480;52.724;6.436;2024-03-22T14:11:29;37.93;;;14.70;;
52586;SDS011;38480;52.724;6.436;2024-03-22T14:13:58;26.50;;;11.40;;
52586;SDS011;38480;52.724;6.436;2024-03-22T14:16:24;35.10;;;11.83;;